createdAt,value
2023-05-17T00:00:50.044Z,80.3949
2023-05-17T00:01:51.374Z,80.3916
2023-05-17T00:02:52.931Z,80.3009
2023-05-17T00:03:54.364Z,80.3192
2023-05-17T00:04:55.740Z,80.2186
2023-05-17T00:05:57.187Z,80.1236
2023-05-17T00:06:58.518Z,80.1011
2023-05-17T00:07:59.987Z,80.1375
2023-05-17T00:09:01.446Z,80.2184
2023-05-17T00:10:02.862Z,80.2175
2023-05-17T00:11:04.282Z,80.2461
2023-05-17T00:12:05.724Z,80.3341
2023-05-17T00:13:07.177Z,80.2372
2023-05-17T00:14:08.572Z,80.1574
2023-05-17T00:15:09.952Z,80.1122
2023-05-17T00:16:11.456Z,80.0753
2023-05-17T00:17:12.781Z,80.0171
2023-05-17T00:18:14.301Z,79.8899
2023-05-17T00:19:15.819Z,79.9212
2023-05-17T00:20:17.097Z,80.0089
2023-05-17T00:21:18.498Z,79.9591
2023-05-17T00:22:19.956Z,79.8904
2023-05-17T00:23:21.347Z,80.0478
2023-05-17T00:24:22.855Z,79.9474
2023-05-17T00:25:24.201Z,79.9941
2023-05-17T00:26:25.755Z,79.7697
2023-05-17T00:27:27.088Z,79.9045
2023-05-17T00:28:28.558Z,79.8767
2023-05-17T00:29:29.872Z,79.6545
2023-05-17T00:30:31.377Z,79.7751
2023-05-17T00:31:32.764Z,79.7341
2023-05-17T00:32:34.273Z,79.7931
2023-05-17T00:33:35.618Z,79.7451
2023-05-17T00:34:37.140Z,79.6305
2023-05-17T00:35:38.498Z,79.7761
2023-05-17T00:36:39.964Z,79.7921
2023-05-17T00:37:41.419Z,79.7118
2023-05-17T00:38:42.667Z,79.7974
2023-05-17T00:39:44.214Z,79.8853
2023-05-17T00:40:45.590Z,79.7528
2023-05-17T00:41:47.046Z,79.6619
2023-05-17T00:42:48.499Z,79.6461
2023-05-17T00:43:49.981Z,79.7282
2023-05-17T00:44:51.302Z,79.6630
2023-05-17T00:45:52.651Z,79.5621
2023-05-17T00:46:54.166Z,79.6308
2023-05-17T00:47:55.563Z,79.5655
2023-05-17T00:48:56.986Z,79.5584
2023-05-17T00:49:58.370Z,79.5999
2023-05-17T00:50:59.829Z,79.7360
2023-05-17T00:52:01.251Z,79.7908
2023-05-17T00:53:02.786Z,79.7963
2023-05-17T00:54:04.086Z,79.7187
2023-05-17T00:55:05.529Z,79.8125
2023-05-17T00:56:06.916Z,79.6448
2023-05-17T00:57:08.430Z,79.5431
2023-05-17T00:58:09.768Z,79.6131
2023-05-17T00:59:11.207Z,79.5920
2023-05-17T01:00:12.649Z,79.4414
2023-05-17T01:01:14.044Z,79.4225
2023-05-17T01:02:15.511Z,79.4925
2023-05-17T01:03:17.085Z,79.3823
2023-05-17T01:04:18.442Z,79.3432
2023-05-17T01:05:19.782Z,79.4732
2023-05-17T01:06:21.198Z,79.5269
2023-05-17T01:07:22.639Z,79.5254
2023-05-17T01:08:24.037Z,79.6002
2023-05-17T01:09:25.449Z,79.5157
2023-05-17T01:10:26.864Z,79.5304
2023-05-17T01:11:28.355Z,79.4967
2023-05-17T01:12:29.815Z,79.3290
2023-05-17T01:13:31.276Z,79.3634
2023-05-17T01:14:32.613Z,79.3483
2023-05-17T01:15:34.030Z,79.2662
2023-05-17T01:16:35.468Z,79.2320
2023-05-17T01:17:36.987Z,79.2437
2023-05-17T01:18:38.435Z,79.2868
2023-05-17T01:19:39.755Z,79.2889
2023-05-17T01:20:41.085Z,79.1912
2023-05-17T01:21:42.507Z,79.2100
2023-05-17T01:22:43.855Z,79.0601
2023-05-17T01:23:46.348Z,79.1476
2023-05-17T01:24:46.739Z,79.0118
2023-05-17T01:25:48.143Z,79.1499
2023-05-17T01:26:49.617Z,79.2237
2023-05-17T01:27:51.086Z,79.2221
2023-05-17T01:28:52.430Z,79.2044
2023-05-17T01:29:54.032Z,79.1297
2023-05-17T01:30:55.382Z,78.9539
2023-05-17T01:31:56.724Z,79.0301
2023-05-17T01:32:58.189Z,78.8253
2023-05-17T01:33:59.865Z,78.9842
2023-05-17T01:35:00.995Z,79.0948
2023-05-17T01:36:02.422Z,79.0165
2023-05-17T01:37:03.867Z,79.0480
2023-05-17T01:38:05.329Z,78.9782
2023-05-17T01:39:06.721Z,78.9551
2023-05-17T01:40:08.018Z,79.0618
2023-05-17T01:41:09.493Z,79.1896
2023-05-17T01:42:10.994Z,79.1105
2023-05-17T01:43:12.384Z,79.1269
2023-05-17T01:44:13.808Z,79.0587
2023-05-17T01:45:15.163Z,78.8466
2023-05-17T01:46:16.623Z,78.8172
2023-05-17T01:47:17.998Z,78.8375
2023-05-17T01:48:19.577Z,78.9660
2023-05-17T01:49:21.796Z,78.9403
2023-05-17T01:50:22.280Z,79.1367
2023-05-17T01:51:23.695Z,79.2399
2023-05-17T01:52:25.136Z,79.0195
2023-05-17T01:53:26.560Z,78.8673
2023-05-17T01:54:28.825Z,78.9667
2023-05-17T01:55:29.582Z,78.8266
2023-05-17T01:56:30.888Z,78.9570
2023-05-17T01:57:32.293Z,78.8523
2023-05-17T01:58:33.660Z,78.7722
2023-05-17T01:59:35.067Z,78.7893
2023-05-17T02:00:36.534Z,78.8723
2023-05-17T02:01:37.953Z,78.9255
2023-05-17T02:02:39.432Z,78.7395
2023-05-17T02:03:41.907Z,78.7686
2023-05-17T02:04:42.340Z,78.8085
2023-05-17T02:05:43.733Z,78.7457
2023-05-17T02:06:45.183Z,78.6830
2023-05-17T02:07:46.585Z,78.6836
2023-05-17T02:08:47.973Z,78.7004
2023-05-17T02:09:49.485Z,78.6539
2023-05-17T02:10:50.853Z,78.6645
2023-05-17T02:11:52.246Z,78.7278
2023-05-17T02:12:53.686Z,78.7196
2023-05-17T02:13:55.104Z,78.7406
2023-05-17T02:14:56.568Z,78.6923
2023-05-17T02:15:57.933Z,78.7208
2023-05-17T02:16:59.292Z,78.6902
2023-05-17T02:18:00.927Z,78.6325
2023-05-17T02:19:02.352Z,78.5351
2023-05-17T02:20:04.276Z,78.3833
2023-05-17T02:21:05.147Z,78.4782
2023-05-17T02:22:06.495Z,78.5264
2023-05-17T02:23:07.981Z,78.5799
2023-05-17T02:24:09.341Z,78.4701
2023-05-17T02:25:10.855Z,78.4691
2023-05-17T02:26:12.201Z,78.4134
2023-05-17T02:27:13.721Z,78.4621
2023-05-17T02:28:15.069Z,78.5011
2023-05-17T02:29:16.562Z,78.6073
2023-05-17T02:30:18.422Z,78.4553
2023-05-17T02:31:19.512Z,78.4742
2023-05-17T02:32:20.796Z,78.4297
2023-05-17T02:33:22.241Z,78.3005
2023-05-17T02:34:23.679Z,78.4110
2023-05-17T02:35:25.145Z,78.4005
2023-05-17T02:36:26.568Z,78.5852
2023-05-17T02:37:27.959Z,78.4754
2023-05-17T02:38:29.314Z,78.4688
2023-05-17T02:39:30.768Z,78.4046
2023-05-17T02:40:32.163Z,78.5035
2023-05-17T02:41:33.613Z,78.4592
2023-05-17T02:42:35.034Z,78.3736
2023-05-17T02:43:36.456Z,78.4379
2023-05-17T02:44:38.785Z,78.3839
2023-05-17T02:45:39.256Z,78.2563
2023-05-17T02:46:40.687Z,78.2987
2023-05-17T02:47:42.242Z,78.0931
2023-05-17T02:48:43.533Z,78.0410
2023-05-17T02:49:45.063Z,78.2782
2023-05-17T02:50:46.442Z,78.1434
2023-05-17T02:51:47.863Z,78.1278
2023-05-17T02:52:49.243Z,78.0976
2023-05-17T02:53:50.776Z,78.2539
2023-05-17T02:54:52.150Z,78.2879
2023-05-17T02:55:53.614Z,78.0921
2023-05-17T02:56:54.946Z,78.0045
2023-05-17T02:57:56.365Z,78.1137
2023-05-17T02:58:57.789Z,78.1385
2023-05-17T02:59:59.825Z,78.0876
2023-05-17T03:01:00.662Z,78.2290
2023-05-17T03:02:02.041Z,78.0985
2023-05-17T03:03:03.575Z,78.1599
2023-05-17T03:04:05.097Z,78.0664
2023-05-17T03:05:06.365Z,78.0368
2023-05-17T03:06:07.874Z,78.1768
2023-05-17T03:07:09.208Z,78.0719
2023-05-17T03:08:10.650Z,78.0101
2023-05-17T03:09:12.034Z,78.0438
2023-05-17T03:10:13.509Z,78.0930
2023-05-17T03:11:15.894Z,78.0344
2023-05-17T03:12:16.356Z,77.9522
2023-05-17T03:13:17.758Z,77.8595
2023-05-17T03:14:19.164Z,78.0277
2023-05-17T03:15:20.636Z,77.8760
2023-05-17T03:16:22.066Z,77.8186
2023-05-17T03:17:23.615Z,78.0444
2023-05-17T03:18:24.913Z,78.0734
2023-05-17T03:19:26.410Z,77.9399
2023-05-17T03:20:27.751Z,77.8391
2023-05-17T03:21:29.144Z,77.7870
2023-05-17T03:22:31.296Z,77.7550
2023-05-17T03:23:31.956Z,77.9007
2023-05-17T03:24:33.458Z,77.7861
2023-05-17T03:25:34.877Z,77.7880
2023-05-17T03:26:36.283Z,77.8724
2023-05-17T03:27:37.654Z,77.8716
2023-05-17T03:28:39.067Z,77.9455
2023-05-17T03:29:40.485Z,77.8837
2023-05-17T03:30:41.967Z,77.7111
2023-05-17T03:31:43.367Z,77.6656
2023-05-17T03:32:44.921Z,77.7458
2023-05-17T03:33:46.311Z,77.9526
2023-05-17T03:34:47.653Z,77.9685
2023-05-17T03:35:49.284Z,77.9496
2023-05-17T03:36:50.407Z,77.8726
2023-05-17T03:37:51.856Z,77.7676
2023-05-17T03:38:53.416Z,77.7637
2023-05-17T03:39:54.721Z,77.7438
2023-05-17T03:40:56.239Z,77.7918
2023-05-17T03:41:57.660Z,77.7096
2023-05-17T03:42:59.122Z,77.8211
2023-05-17T03:44:00.383Z,77.7679
2023-05-17T03:45:01.894Z,77.9887
2023-05-17T03:46:03.308Z,77.7064
2023-05-17T03:47:04.777Z,77.7935
2023-05-17T03:48:06.305Z,77.7053
2023-05-17T03:49:07.740Z,77.7473
2023-05-17T03:50:09.010Z,77.6854
2023-05-17T03:51:10.466Z,77.8196
2023-05-17T03:52:11.843Z,77.7659
2023-05-17T03:53:13.341Z,77.7441
2023-05-17T03:54:14.647Z,77.8239
2023-05-17T03:55:16.132Z,77.9039
2023-05-17T03:56:17.613Z,77.8543
2023-05-17T03:57:19.821Z,77.9455
2023-05-17T03:58:20.427Z,77.7881
2023-05-17T03:59:21.817Z,77.8235
2023-05-17T04:00:23.217Z,77.7124
2023-05-17T04:01:24.782Z,77.7311
2023-05-17T04:02:26.189Z,77.7330
2023-05-17T04:03:27.512Z,77.5943
2023-05-17T04:04:28.954Z,77.5657
2023-05-17T04:05:30.765Z,77.5380
2023-05-17T04:06:31.816Z,77.5418
2023-05-17T04:07:33.158Z,77.5845
2023-05-17T04:08:34.621Z,77.6401
2023-05-17T04:09:36.150Z,77.6691
2023-05-17T04:10:37.475Z,77.6975
2023-05-17T04:11:38.941Z,77.8370
2023-05-17T04:12:40.372Z,77.5431
2023-05-17T04:13:41.792Z,77.3893
2023-05-17T04:14:43.104Z,77.6091
2023-05-17T04:15:44.635Z,77.1798
2023-05-17T04:16:46.094Z,76.4200
2023-05-17T04:17:47.613Z,76.8590
2023-05-17T04:18:48.948Z,77.7276
2023-05-17T04:19:50.439Z,78.1547
2023-05-17T04:20:51.825Z,78.1705
2023-05-17T04:21:53.239Z,77.9577
2023-05-17T04:22:54.685Z,77.9106
2023-05-17T04:23:56.109Z,77.6373
2023-05-17T04:24:57.552Z,77.8063
2023-05-17T04:25:58.955Z,77.7791
2023-05-17T04:27:01.943Z,77.8991
2023-05-17T04:28:01.834Z,77.9042
2023-05-17T04:29:03.188Z,77.7738
2023-05-17T04:30:04.661Z,77.6523
2023-05-17T04:31:06.041Z,77.8664
2023-05-17T04:32:07.546Z,77.9287
2023-05-17T04:33:08.985Z,77.9662
2023-05-17T04:34:10.472Z,77.9479
2023-05-17T04:35:11.752Z,77.9928
2023-05-17T04:36:13.278Z,78.0163
2023-05-17T04:37:14.597Z,78.0608
2023-05-17T04:38:16.089Z,78.1025
2023-05-17T04:39:17.447Z,78.0877
2023-05-17T04:40:19.123Z,77.9789
2023-05-17T04:41:20.266Z,77.9243
2023-05-17T04:42:21.773Z,77.8562
2023-05-17T04:43:23.163Z,77.9993
2023-05-17T04:44:24.663Z,78.0692
2023-05-17T04:45:26.195Z,78.0911
2023-05-17T04:46:27.533Z,78.1631
2023-05-17T04:47:30.014Z,78.2562
2023-05-17T04:48:30.431Z,78.3054
2023-05-17T04:49:31.744Z,78.2094
2023-05-17T04:50:33.141Z,78.2520
2023-05-17T04:51:34.567Z,77.9582
2023-05-17T04:52:35.996Z,77.9291
2023-05-17T04:53:37.472Z,78.0325
2023-05-17T04:54:38.799Z,78.2004
2023-05-17T04:55:40.357Z,78.2160
2023-05-17T04:56:41.734Z,78.2355
2023-05-17T04:57:43.128Z,78.1002
2023-05-17T04:58:44.547Z,78.0084
2023-05-17T04:59:45.965Z,77.9806
2023-05-17T05:00:47.432Z,78.0076
2023-05-17T05:01:48.781Z,77.9208
2023-05-17T05:02:50.271Z,77.9595
2023-05-17T05:03:51.816Z,77.7949
2023-05-17T05:04:53.142Z,77.6209
2023-05-17T05:05:54.496Z,77.7522
2023-05-17T05:06:55.939Z,77.9825
2023-05-17T05:07:57.372Z,77.9642
2023-05-17T05:08:58.684Z,77.9582
2023-05-17T05:10:00.252Z,78.0450
2023-05-17T05:11:01.527Z,78.3173
2023-05-17T05:12:03.120Z,78.2493
2023-05-17T05:13:04.451Z,78.1131
2023-05-17T05:14:05.942Z,78.0404
2023-05-17T05:15:07.258Z,77.8759
2023-05-17T05:16:08.613Z,78.1331
2023-05-17T05:17:10.223Z,78.0371
2023-05-17T05:18:11.700Z,78.0527
2023-05-17T05:19:13.245Z,78.2069
2023-05-17T05:20:14.406Z,78.2715
2023-05-17T05:21:15.824Z,78.3907
2023-05-17T05:22:17.273Z,78.2784
2023-05-17T05:23:18.799Z,77.8930
2023-05-17T05:24:20.203Z,77.7860
2023-05-17T05:25:21.566Z,78.0221
2023-05-17T05:26:22.965Z,77.9811
2023-05-17T05:27:24.361Z,78.1499
2023-05-17T05:28:25.818Z,78.1569
2023-05-17T05:29:27.249Z,77.9124
2023-05-17T05:30:28.608Z,77.9475
2023-05-17T05:31:30.093Z,78.0235
2023-05-17T05:32:31.467Z,78.0043
2023-05-17T05:33:33.057Z,78.2299
2023-05-17T05:34:34.357Z,78.0299
2023-05-17T05:35:35.744Z,77.7489
2023-05-17T05:36:37.144Z,77.8120
2023-05-17T05:37:38.664Z,77.6042
2023-05-17T05:38:40.040Z,77.6293
2023-05-17T05:39:41.534Z,77.5623
2023-05-17T05:40:42.825Z,77.5528
2023-05-17T05:41:44.205Z,77.5880
2023-05-17T05:42:45.748Z,77.6382
2023-05-17T05:43:47.205Z,76.4628
2023-05-17T05:44:48.565Z,75.9705
2023-05-17T05:45:50.051Z,77.2596
2023-05-17T05:46:51.420Z,77.4564
2023-05-17T05:47:53.058Z,77.3317
2023-05-17T05:48:54.322Z,77.1863
2023-05-17T05:49:55.705Z,77.3118
2023-05-17T05:50:57.155Z,77.1447
2023-05-17T05:51:58.563Z,77.3058
2023-05-17T05:53:10.414Z,75.2214
2023-05-17T05:54:01.445Z,73.9346
2023-05-17T05:55:02.858Z,74.8930
2023-05-17T05:56:04.175Z,76.6957
2023-05-17T05:57:05.656Z,77.2375
2023-05-17T05:58:07.089Z,77.6502
2023-05-17T05:59:08.529Z,77.7124
2023-05-17T06:00:09.987Z,75.4626
2023-05-17T06:01:11.324Z,75.3242
2023-05-17T06:02:12.798Z,76.9253
2023-05-17T06:03:14.051Z,77.7953
2023-05-17T06:04:15.675Z,77.7529
2023-05-17T06:05:17.084Z,77.9628
2023-05-17T06:06:18.507Z,77.6161
2023-05-17T06:07:19.961Z,77.0297
2023-05-17T06:08:21.427Z,75.8458
2023-05-17T06:09:22.888Z,74.5158
2023-05-17T06:10:24.169Z,73.1944
2023-05-17T06:11:25.658Z,70.8642
2023-05-17T06:12:27.090Z,69.4739
2023-05-17T06:13:28.458Z,68.5332
2023-05-17T06:14:29.938Z,68.1916
2023-05-17T06:15:31.413Z,67.8287
2023-05-17T06:16:32.805Z,66.9219
2023-05-17T06:17:34.331Z,66.3705
2023-05-17T06:18:35.728Z,65.9785
2023-05-17T06:19:37.194Z,66.0233
2023-05-17T06:20:38.530Z,65.9466
2023-05-17T06:21:39.923Z,64.0006
2023-05-17T06:22:41.243Z,63.6310
2023-05-17T06:23:42.783Z,63.6882
2023-05-17T06:24:44.140Z,63.3396
2023-05-17T06:25:45.620Z,63.0312
2023-05-17T06:26:46.958Z,62.8868
2023-05-17T06:27:48.426Z,63.7363
2023-05-17T06:28:49.792Z,64.2586
2023-05-17T06:29:51.249Z,64.1820
2023-05-17T06:30:52.687Z,63.3220
2023-05-17T06:31:54.117Z,61.7887
2023-05-17T06:32:55.573Z,60.1619
2023-05-17T06:33:57.084Z,60.1331
2023-05-17T06:34:58.438Z,60.1997
2023-05-17T06:37:01.121Z,61.5110
2023-05-17T06:38:02.598Z,62.2735
2023-05-17T06:39:04.011Z,60.0104
2023-05-17T06:40:14.848Z,59.7208
2023-05-17T06:41:06.810Z,59.9707
2023-05-17T06:42:08.285Z,60.1512
2023-05-17T06:43:09.798Z,60.2379
2023-05-17T06:44:11.231Z,60.6668
2023-05-17T06:45:12.565Z,59.5808
2023-05-17T06:46:13.962Z,59.6115
2023-05-17T06:47:15.475Z,59.9737
2023-05-17T06:48:16.970Z,60.5019
2023-05-17T06:49:18.218Z,61.4435
2023-05-17T06:50:19.666Z,61.5894
2023-05-17T06:51:21.184Z,60.2344
2023-05-17T06:52:22.522Z,60.5918
2023-05-17T06:53:23.905Z,61.4145
2023-05-17T06:54:25.320Z,62.0203
2023-05-17T06:55:27.413Z,62.2010
2023-05-17T06:56:28.142Z,62.5593
2023-05-17T06:57:29.695Z,63.0521
2023-05-17T06:58:30.904Z,62.5036
2023-05-17T06:59:32.425Z,62.8736
2023-05-17T07:00:34.211Z,63.3442
2023-05-17T07:01:35.460Z,63.7883
2023-05-17T07:02:36.758Z,63.9734
2023-05-17T07:03:38.213Z,64.9884
2023-05-17T07:04:39.589Z,65.5777
2023-05-17T07:05:41.013Z,66.4499
2023-05-17T07:06:42.412Z,64.8213
2023-05-17T07:07:43.781Z,65.1982
2023-05-17T07:08:45.267Z,65.2039
2023-05-17T07:09:46.607Z,65.6077
2023-05-17T07:10:47.962Z,66.1677
2023-05-17T07:11:49.574Z,66.5827
2023-05-17T07:12:50.951Z,66.9313
2023-05-17T07:13:54.292Z,68.6264
2023-05-17T07:14:53.732Z,66.7460
2023-05-17T07:15:55.253Z,66.4827
2023-05-17T07:16:56.628Z,66.4935
2023-05-17T07:17:57.987Z,67.0903
2023-05-17T07:18:59.513Z,67.4012
2023-05-17T07:20:01.013Z,67.4254
2023-05-17T07:21:02.297Z,68.1691
2023-05-17T07:22:03.762Z,69.1858
2023-05-17T07:23:05.127Z,67.6642
2023-05-17T07:24:06.889Z,66.9339
2023-05-17T07:25:07.961Z,67.0416
2023-05-17T07:26:09.416Z,66.9959
2023-05-17T07:27:10.797Z,67.3507
2023-05-17T07:28:12.250Z,67.5960
2023-05-17T07:29:13.688Z,67.2309
2023-05-17T07:30:15.129Z,66.9719
2023-05-17T07:31:16.540Z,66.8154
2023-05-17T07:32:18.304Z,67.3657
2023-05-17T07:33:19.421Z,67.5014
2023-05-17T07:34:20.886Z,67.8576
2023-05-17T07:35:22.245Z,68.3393
2023-05-17T07:36:23.749Z,68.1353
2023-05-17T07:37:25.029Z,68.0273
2023-05-17T07:38:26.466Z,67.3435
2023-05-17T07:39:27.871Z,67.9231
2023-05-17T07:40:29.259Z,68.1098
2023-05-17T07:41:30.726Z,67.8663
2023-05-17T07:42:32.167Z,68.1909
2023-05-17T07:43:33.547Z,68.7217
2023-05-17T07:44:34.970Z,68.7372
2023-05-17T07:45:36.386Z,67.7525
2023-05-17T07:46:37.852Z,68.0581
2023-05-17T07:47:39.295Z,68.4667
2023-05-17T07:48:40.772Z,68.6374
2023-05-17T07:49:43.083Z,68.6680
2023-05-17T07:50:43.702Z,68.6394
2023-05-17T07:51:44.964Z,68.2475
2023-05-17T07:52:46.472Z,68.0371
2023-05-17T07:53:47.720Z,68.3931
2023-05-17T07:54:49.282Z,68.5858
2023-05-17T07:55:50.663Z,69.0788
2023-05-17T07:56:52.085Z,69.3915
2023-05-17T07:57:53.475Z,68.4097
2023-05-17T07:58:55.426Z,68.2848
2023-05-17T07:59:56.315Z,68.8310
2023-05-17T08:00:57.774Z,69.0375
2023-05-17T08:01:59.198Z,69.0583
2023-05-17T08:03:00.551Z,69.3932
2023-05-17T08:04:02.025Z,68.5175
2023-05-17T08:05:03.399Z,68.4582
2023-05-17T08:06:04.792Z,69.0058
2023-05-17T08:07:06.239Z,69.5213
2023-05-17T08:08:07.751Z,70.0051
2023-05-17T08:09:09.067Z,68.9416
2023-05-17T08:10:10.516Z,68.2992
2023-05-17T08:11:11.904Z,68.2882
2023-05-17T08:12:13.374Z,68.6837
2023-05-17T08:13:14.773Z,68.7003
2023-05-17T08:14:16.196Z,68.6874
2023-05-17T08:15:17.519Z,68.5216
2023-05-17T08:16:19.040Z,67.9462
2023-05-17T08:17:20.486Z,68.1060
2023-05-17T08:18:22.013Z,68.7560
2023-05-17T08:19:23.461Z,69.3106
2023-05-17T08:20:24.860Z,69.2141
2023-05-17T08:21:26.182Z,68.5242
2023-05-17T08:22:27.596Z,67.6724
2023-05-17T08:23:29.087Z,68.0380
2023-05-17T08:24:30.399Z,68.7770
2023-05-17T08:25:31.893Z,68.8959
2023-05-17T08:26:33.259Z,68.9656
2023-05-17T08:27:34.780Z,68.1143
2023-05-17T08:28:36.062Z,67.4746
2023-05-17T08:29:38.903Z,68.1396
2023-05-17T08:30:38.885Z,68.7974
2023-05-17T08:31:40.536Z,68.9257
2023-05-17T08:32:41.797Z,68.5813
2023-05-17T08:33:43.279Z,67.5845
2023-05-17T08:34:44.588Z,67.3606
2023-05-17T08:35:46.074Z,68.4962
2023-05-17T08:36:47.448Z,69.1322
2023-05-17T08:37:48.969Z,69.9013
2023-05-17T08:38:50.316Z,68.8058
2023-05-17T08:39:51.796Z,67.4244
2023-05-17T08:40:53.109Z,67.7435
2023-05-17T08:41:54.517Z,68.7742
2023-05-17T08:42:56.027Z,69.2080
2023-05-17T08:43:57.449Z,69.1715
2023-05-17T08:44:58.865Z,67.7258
2023-05-17T08:46:00.256Z,66.8524
2023-05-17T08:47:01.612Z,67.4956
2023-05-17T08:48:03.098Z,68.7692
2023-05-17T08:49:04.983Z,69.6009
2023-05-17T08:50:06.046Z,69.3158
2023-05-17T08:51:07.343Z,67.8184
2023-05-17T08:52:08.782Z,66.9199
2023-05-17T08:53:10.388Z,67.4373
2023-05-17T08:54:11.614Z,68.7252
2023-05-17T08:55:12.948Z,69.3221
2023-05-17T08:56:14.461Z,69.2791
2023-05-17T08:57:15.891Z,67.8195
2023-05-17T08:58:17.331Z,67.0280
2023-05-17T08:59:18.777Z,67.8854
2023-05-17T09:00:20.246Z,68.7852
2023-05-17T09:01:22.645Z,69.0486
2023-05-17T09:02:23.076Z,69.0267
2023-05-17T09:03:24.493Z,67.3936
2023-05-17T09:04:25.881Z,66.4088
2023-05-17T09:05:27.232Z,67.2193
2023-05-17T09:06:28.646Z,68.2924
2023-05-17T09:07:29.998Z,68.8421
2023-05-17T09:08:31.518Z,68.4661
2023-05-17T09:09:32.910Z,66.9675
2023-05-17T09:10:34.312Z,66.3361
2023-05-17T09:11:35.696Z,67.4914
2023-05-17T09:12:37.184Z,68.5310
2023-05-17T09:13:38.746Z,68.9157
2023-05-17T09:14:40.097Z,67.9130
2023-05-17T09:15:41.402Z,66.7720
2023-05-17T09:16:42.936Z,67.3026
2023-05-17T09:17:44.636Z,68.4508
2023-05-17T09:18:45.902Z,69.2720
2023-05-17T09:19:47.292Z,69.3046
2023-05-17T09:20:48.517Z,67.8449
2023-05-17T09:21:49.952Z,66.8072
2023-05-17T09:22:51.388Z,67.4528
2023-05-17T09:24:04.567Z,68.4952
2023-05-17T09:24:54.279Z,69.1863
2023-05-17T09:25:55.683Z,69.0421
2023-05-17T09:26:57.024Z,67.6002
2023-05-17T09:27:58.495Z,66.8107
2023-05-17T09:28:59.974Z,67.4235
2023-05-17T09:30:01.326Z,68.5788
2023-05-17T09:31:02.711Z,69.3992
2023-05-17T09:32:04.168Z,69.2312
2023-05-17T09:33:05.574Z,67.6334
2023-05-17T09:34:07.145Z,67.0396
2023-05-17T09:35:08.577Z,68.0354
2023-05-17T09:36:09.916Z,69.0501
2023-05-17T09:37:11.330Z,69.4173
2023-05-17T09:38:12.737Z,68.5753
2023-05-17T09:39:14.095Z,67.3367
2023-05-17T09:40:15.631Z,67.7424
2023-05-17T09:41:17.061Z,68.8191
2023-05-17T09:42:18.578Z,69.8322
2023-05-17T09:43:19.772Z,69.3656
2023-05-17T09:44:21.596Z,67.6505
2023-05-17T09:45:22.573Z,66.9713
2023-05-17T09:46:24.148Z,68.0517
2023-05-17T09:47:25.551Z,68.9757
2023-05-17T09:48:27.028Z,69.5741
2023-05-17T09:49:28.375Z,69.1364
2023-05-17T09:50:29.802Z,67.6559
2023-05-17T09:51:31.149Z,67.3926
2023-05-17T09:52:32.657Z,68.5052
2023-05-17T09:53:34.112Z,69.5910
2023-05-17T09:54:35.529Z,69.9258
2023-05-17T09:55:37.390Z,69.3170
2023-05-17T09:56:38.458Z,68.0677
2023-05-17T09:57:39.792Z,68.2231
2023-05-17T09:58:41.192Z,69.2559
2023-05-17T09:59:42.592Z,69.8289
2023-05-17T10:00:44.025Z,70.1363
2023-05-17T10:01:45.753Z,68.4891
2023-05-17T10:02:46.937Z,67.7906
2023-05-17T10:03:48.347Z,68.7539
2023-05-17T10:04:49.770Z,69.6449
2023-05-17T10:05:51.158Z,70.2422
2023-05-17T10:06:52.694Z,70.0331
2023-05-17T10:07:53.845Z,68.4122
2023-05-17T10:08:55.495Z,67.7746
2023-05-17T10:09:56.891Z,68.7289
2023-05-17T10:10:58.286Z,69.6408
2023-05-17T10:12:00.066Z,70.0148
2023-05-17T10:13:01.251Z,69.4929
2023-05-17T10:14:02.529Z,67.9669
2023-05-17T10:15:04.345Z,67.7315
2023-05-17T10:16:05.487Z,68.6859
2023-05-17T10:17:06.783Z,69.8053
2023-05-17T10:18:08.352Z,70.6092
2023-05-17T10:19:09.670Z,70.2509
2023-05-17T10:20:11.269Z,68.3229
2023-05-17T10:21:12.523Z,68.0518
2023-05-17T10:22:22.370Z,68.9276
2023-05-17T10:23:15.312Z,69.7942
2023-05-17T10:24:16.775Z,70.7108
2023-05-17T10:25:18.194Z,70.0874
2023-05-17T10:26:19.728Z,68.3337
2023-05-17T10:27:21.077Z,68.1860
2023-05-17T10:28:22.374Z,69.2567
2023-05-17T10:29:23.825Z,70.1403
2023-05-17T10:30:25.323Z,70.0688
2023-05-17T10:31:26.754Z,69.2788
2023-05-17T10:32:28.270Z,67.8433
2023-05-17T10:33:29.570Z,67.9847
2023-05-17T10:34:31.054Z,68.6353
2023-05-17T10:35:32.307Z,69.4156
2023-05-17T10:36:33.970Z,69.5294
2023-05-17T10:37:35.114Z,67.8732
2023-05-17T10:38:42.666Z,67.0552
2023-05-17T10:39:38.099Z,67.6865
2023-05-17T10:40:39.606Z,68.4518
2023-05-17T10:41:41.015Z,69.1019
2023-05-17T10:42:42.499Z,68.4836
2023-05-17T10:43:43.766Z,67.0495
2023-05-17T10:44:45.216Z,67.1705
2023-05-17T10:45:46.683Z,68.1781
2023-05-17T10:46:48.167Z,69.6662
2023-05-17T10:47:49.452Z,69.7868
2023-05-17T10:48:50.963Z,67.9418
2023-05-17T10:49:52.301Z,67.2387
2023-05-17T10:51:01.024Z,67.8049
2023-05-17T10:51:55.043Z,68.9507
2023-05-17T10:52:56.697Z,70.0493
2023-05-17T10:53:57.960Z,69.6352
2023-05-17T10:54:59.441Z,67.7589
2023-05-17T10:56:00.854Z,67.4782
2023-05-17T10:57:02.298Z,68.2017
2023-05-17T10:58:03.686Z,69.0956
2023-05-17T10:59:05.083Z,69.3169
2023-05-17T11:00:06.671Z,67.8232
2023-05-17T11:01:08.021Z,66.8272
2023-05-17T11:02:09.409Z,67.3998
2023-05-17T11:03:10.962Z,68.1692
2023-05-17T11:04:12.301Z,68.9332
2023-05-17T11:05:13.798Z,68.7080
2023-05-17T11:06:23.378Z,66.8228
2023-05-17T11:07:16.599Z,66.1209
2023-05-17T11:08:17.909Z,67.1888
2023-05-17T11:09:19.364Z,68.2203
2023-05-17T11:10:20.778Z,69.6451
2023-05-17T11:11:22.266Z,68.4184
2023-05-17T11:12:23.616Z,66.7313
2023-05-17T11:13:25.116Z,67.1140
2023-05-17T11:14:26.414Z,68.1290
2023-05-17T11:15:28.217Z,68.4109
2023-05-17T11:16:29.340Z,67.4275
2023-05-17T11:17:30.778Z,66.1026
2023-05-17T11:18:34.280Z,65.5582
2023-05-17T11:19:33.791Z,66.1744
2023-05-17T11:20:35.523Z,66.9432
2023-05-17T11:21:36.596Z,67.0124
2023-05-17T11:22:37.960Z,65.6667
2023-05-17T11:23:39.246Z,64.5083
2023-05-17T11:24:40.674Z,64.6704
2023-05-17T11:25:42.021Z,65.9506
2023-05-17T11:26:43.582Z,66.4530
2023-05-17T11:27:45.037Z,66.0180
2023-05-17T11:28:46.426Z,64.4731
2023-05-17T11:29:47.830Z,63.7700
2023-05-17T11:30:49.296Z,64.4099
2023-05-17T11:31:50.686Z,65.4721
2023-05-17T11:32:52.302Z,66.2965
2023-05-17T11:33:53.553Z,65.7291
2023-05-17T11:34:54.957Z,64.3233
2023-05-17T11:35:56.322Z,64.1913
2023-05-17T11:36:57.893Z,65.3833
2023-05-17T11:37:59.400Z,66.4567
2023-05-17T11:39:08.152Z,66.7064
2023-05-17T11:40:01.946Z,65.5650
2023-05-17T11:41:04.687Z,65.0772
2023-05-17T11:42:04.991Z,65.9458
2023-05-17T11:43:06.376Z,67.1954
2023-05-17T11:44:07.753Z,68.1522
2023-05-17T11:45:09.214Z,68.3690
2023-05-17T11:46:10.687Z,66.1863
2023-05-17T11:47:12.102Z,65.5583
2023-05-17T11:48:13.620Z,66.5659
2023-05-17T11:49:23.610Z,67.6349
2023-05-17T11:50:16.261Z,68.6361
2023-05-17T11:51:17.722Z,68.0886
2023-05-17T11:52:19.197Z,65.9828
2023-05-17T11:53:20.671Z,65.4373
2023-05-17T11:54:21.941Z,66.6144
2023-05-17T11:55:23.386Z,67.6227
2023-05-17T11:56:35.668Z,68.6757
2023-05-17T11:57:26.377Z,67.0825
2023-05-17T11:58:27.643Z,65.6059
2023-05-17T11:59:29.080Z,65.3280
2023-05-17T12:00:30.750Z,66.2656
2023-05-17T12:01:31.924Z,66.9997
2023-05-17T12:02:33.516Z,67.7346
2023-05-17T12:03:34.763Z,66.8141
2023-05-17T12:04:36.221Z,65.6235
2023-05-17T12:05:37.603Z,66.1515
2023-05-17T12:06:39.087Z,67.3610
2023-05-17T12:07:40.553Z,68.2320
2023-05-17T12:08:41.962Z,68.9669
2023-05-17T12:09:43.381Z,68.0751
2023-05-17T12:10:44.815Z,66.6257
2023-05-17T12:11:46.276Z,67.2390
2023-05-17T12:12:47.644Z,68.1507
2023-05-17T12:13:49.243Z,68.9959
2023-05-17T12:14:50.914Z,68.5066
2023-05-17T12:15:51.850Z,69.5469
2023-05-17T12:16:53.323Z,69.0798
2023-05-17T12:17:54.879Z,66.6364
2023-05-17T12:18:56.282Z,66.6993
2023-05-17T12:19:57.752Z,67.1978
2023-05-17T12:20:59.008Z,66.9360
2023-05-17T12:22:00.540Z,66.5519
2023-05-17T12:23:01.989Z,66.6392
2023-05-17T12:24:03.279Z,66.4430